Main page
METAR-TAF:

METAR-TAF

Airports :

Oil platform

Ekofisk, Norway

latitude: 56-33N, longitude: 003-15E, elevation: 3 m

Current weather observation

The report was made 42 minutes ago, at 13:20 UTC
Wind 7 kt from the East/Southeast
Temperature 3°C
Humidity 100%
Pressure 1033 hPa
Visibility: 0500 m
fog

METAR: ENLE 021320Z 12007KT 0500 FG NSC 03/03 Q1033 W06/S3

Time: 15:02 (14:02 UTC)

Forecast

The report was made 3 hours and 2 minutes ago, at 11:00 UTC
Forecast valid from 02 at 12 UTC to 02 at 21 UTC
Wind 8 kt from the South/Southeast
Visibility: 0200 m
at a height of 200 ft
fog
Probability 30%
from 02 at 12 UTC to 02 at 21 UTC
Visibility 10 km or more
Scattered clouds at a height of 400 ft
Broken clouds at a height of 1200 ft

TAF: ENLE 021100Z 0212/0221 15008KT 0200 FG VV002 PROB30 0212/0221 9999 SCT004 BKN012

Weather observations and forecasts of more than 4000 airports (METAR and TAF reports).

The available stations are represented by yellow and red dots on the map.

Hover mouse over dot to see the name of the station.

Then click to see weather observations and forecasts.

To change the map : click on the green buttons with a black cross to zoom in, on the green button with a dash to zoom out, or on the green arrows for adjacent maps.


METAR-TAF: